createdAt,value
2019-02-19T00:02:44.094Z,1.51
2019-02-19T00:07:51.317Z,1.64
2019-02-19T00:12:58.616Z,1.32
2019-02-19T00:18:06.351Z,1.70
2019-02-19T00:23:26.733Z,1.42
2019-02-19T00:28:14.148Z,1.68
2019-02-19T00:33:22.426Z,1.74
2019-02-19T00:38:29.665Z,1.59
2019-02-19T00:48:37.727Z,1.46
2019-02-19T00:53:45.182Z,1.41
2019-02-19T00:59:05.337Z,1.39
2019-02-19T01:03:52.603Z,1.43
2019-02-19T01:09:00.858Z,1.55
2019-02-19T01:14:08.003Z,2.07
2019-02-19T01:19:16.123Z,1.65
2019-02-19T01:29:28.089Z,1.65
2019-02-19T01:34:35.284Z,2.09
2019-02-19T01:39:43.363Z,1.64
2019-02-19T01:44:51.546Z,1.57
2019-02-19T01:49:59.769Z,1.85
2019-02-19T01:55:07.019Z,2.01
2019-02-19T02:00:14.110Z,2.28
2019-02-19T02:05:22.281Z,1.68
2019-02-19T02:10:30.525Z,1.20
2019-02-19T02:15:42.614Z,2.62
2019-02-19T02:20:45.174Z,1.58
2019-02-19T02:25:52.443Z,1.68
2019-02-19T02:30:59.656Z,1.75
2019-02-19T02:36:07.092Z,1.91
2019-02-19T02:41:14.163Z,1.85
2019-02-19T02:46:22.537Z,2.16
2019-02-19T02:51:29.664Z,2.25
2019-02-19T02:56:37.794Z,2.20
2019-02-19T03:01:46.016Z,1.86
2019-02-19T03:06:53.386Z,1.97
2019-02-19T03:12:00.618Z,1.70
2019-02-19T03:17:07.982Z,2.34
2019-02-19T03:22:15.242Z,1.98
2019-02-19T03:27:23.385Z,2.28
2019-02-19T03:32:31.658Z,1.76
2019-02-19T03:37:38.904Z,1.83
2019-02-19T03:42:47.086Z,1.55
2019-02-19T03:47:54.449Z,1.95
2019-02-19T03:53:14.602Z,2.63
2019-02-19T03:58:02.005Z,1.70
2019-02-19T04:03:09.089Z,1.38
2019-02-19T04:08:17.321Z,1.73
2019-02-19T04:13:25.547Z,1.66
2019-02-19T04:18:32.878Z,1.38
2019-02-19T04:23:39.940Z,1.94
2019-02-19T04:28:48.271Z,2.14
2019-02-19T04:33:55.586Z,1.41
2019-02-19T04:39:02.899Z,1.83
2019-02-19T04:44:10.972Z,1.48
2019-02-19T04:49:31.279Z,1.53
2019-02-19T04:54:18.514Z,1.45
2019-02-19T04:59:26.031Z,1.06
2019-02-19T05:04:33.141Z,1.53
2019-02-19T05:09:41.581Z,1.25
2019-02-19T05:15:02.554Z,1.24
2019-02-19T05:19:50.026Z,1.77
2019-02-19T05:24:57.090Z,1.36
2019-02-19T05:30:05.253Z,1.23
2019-02-19T05:35:26.346Z,1.51
2019-02-19T05:40:13.553Z,1.76
2019-02-19T05:45:21.609Z,1.82
2019-02-19T05:50:29.987Z,1.84
2019-02-19T05:55:37.137Z,1.58
2019-02-19T06:00:45.429Z,1.47
2019-02-19T06:05:52.515Z,1.45
2019-02-19T06:11:00.832Z,1.39
2019-02-19T06:16:08.082Z,1.66
2019-02-19T06:21:15.549Z,1.51
2019-02-19T06:26:22.620Z,1.55
2019-02-19T06:31:31.080Z,1.45
2019-02-19T06:36:39.145Z,1.71
2019-02-19T06:41:46.468Z,1.91
2019-02-19T06:47:07.102Z,1.89
2019-02-19T06:52:06.757Z,1.98
2019-02-19T06:57:07.842Z,2.14
2019-02-19T07:02:09.235Z,1.94
2019-02-19T07:06:57.288Z,1.82
2019-02-19T07:12:05.778Z,1.47
2019-02-19T07:17:15.669Z,1.52
2019-02-19T07:22:20.256Z,1.97
2019-02-19T07:27:28.457Z,1.59
2019-02-19T07:32:35.769Z,1.63
2019-02-19T07:37:43.038Z,1.40
2019-02-19T07:42:51.142Z,1.41
2019-02-19T07:47:59.823Z,1.66
2019-02-19T07:53:08.109Z,1.74
2019-02-19T07:58:16.397Z,2.20
2019-02-19T08:03:23.769Z,1.84
2019-02-19T08:08:32.691Z,2.23
2019-02-19T08:13:41.490Z,2.29
2019-02-19T08:18:38.829Z,1.96
2019-02-19T08:23:46.043Z,2.15
2019-02-19T08:29:04.025Z,1.89
2019-02-19T08:34:01.561Z,1.93
2019-02-19T08:39:09.506Z,1.95
2019-02-19T08:44:17.722Z,1.91
2019-02-19T08:49:25.776Z,1.57
2019-02-19T08:54:33.956Z,1.86
2019-02-19T08:59:42.124Z,2.23
2019-02-19T09:05:02.831Z,3.24
2019-02-19T09:09:50.063Z,2.96
2019-02-19T09:15:11.272Z,2.89
2019-02-19T09:19:59.533Z,2.50
2019-02-19T09:25:05.094Z,2.47
2019-02-19T09:30:25.048Z,2.34
2019-02-19T09:35:13.348Z,2.32
2019-02-19T09:40:23.567Z,2.45
2019-02-19T09:45:33.817Z,2.35
2019-02-19T09:50:21.155Z,2.28
2019-02-19T09:55:28.474Z,2.45
2019-02-19T10:00:48.537Z,2.91
2019-02-19T10:05:49.786Z,2.54
2019-02-19T10:10:38.018Z,2.31
2019-02-19T10:15:45.310Z,2.87
2019-02-19T10:20:53.496Z,2.56
2019-02-19T10:26:01.310Z,2.49
2019-02-19T10:31:08.589Z,2.99
2019-02-19T10:36:28.845Z,2.25
2019-02-19T10:41:30.144Z,2.04
2019-02-19T10:46:17.660Z,2.03
2019-02-19T10:51:25.135Z,2.61
2019-02-19T10:56:32.508Z,2.55
2019-02-19T11:01:39.755Z,2.32
2019-02-19T11:06:46.931Z,2.19
2019-02-19T11:11:55.114Z,2.26
2019-02-19T11:17:02.490Z,2.18
2019-02-19T11:22:10.559Z,2.18
2019-02-19T11:32:32.338Z,1.91
2019-02-19T11:37:20.603Z,2.22
2019-02-19T11:42:40.762Z,2.13
2019-02-19T11:47:28.203Z,1.77
2019-02-19T11:52:49.449Z,1.83
2019-02-19T11:57:49.740Z,1.45
2019-02-19T12:02:37.934Z,1.75
2019-02-19T12:07:58.082Z,1.64
2019-02-19T12:12:59.035Z,1.61
2019-02-19T12:17:47.294Z,1.37
2019-02-19T12:22:55.334Z,1.04
2019-02-19T12:28:03.602Z,0.71
2019-02-19T12:33:11.700Z,1.07
2019-02-19T12:38:20.209Z,1.03
2019-02-19T12:43:27.310Z,1.01
2019-02-19T12:48:35.045Z,0.79
2019-02-19T12:53:42.199Z,0.85
2019-02-19T12:58:50.729Z,0.77
2019-02-19T13:04:10.724Z,0.76
2019-02-19T13:08:59.048Z,1.29
2019-02-19T13:14:06.223Z,1.25
2019-02-19T13:19:13.664Z,1.44
2019-02-19T13:24:20.876Z,1.30
2019-02-19T13:29:28.342Z,1.62
2019-02-19T13:34:35.520Z,0.94
2019-02-19T13:39:42.899Z,1.37
2019-02-19T13:44:49.976Z,1.40
2019-02-19T13:49:58.699Z,1.44
2019-02-19T13:55:18.817Z,1.12
2019-02-19T14:00:19.073Z,1.13
2019-02-19T14:10:10.894Z,1.27
2019-02-19T14:15:30.891Z,0.99
2019-02-19T14:20:19.254Z,1.59
2019-02-19T14:25:26.522Z,0.99
2019-02-19T14:30:33.720Z,1.09
2019-02-19T14:35:54.691Z,1.03
2019-02-19T14:40:55.952Z,0.96
2019-02-19T14:45:43.068Z,1.75
2019-02-19T14:51:04.378Z,1.28
2019-02-19T14:55:51.612Z,1.18
2019-02-19T15:01:11.981Z,0.95
2019-02-19T15:05:59.223Z,0.95
2019-02-19T15:11:07.429Z,0.92
2019-02-19T15:16:15.360Z,1.23
2019-02-19T15:21:25.534Z,1.28
2019-02-19T15:26:30.919Z,1.72
2019-02-19T15:31:39.326Z,1.16
2019-02-19T15:36:46.567Z,1.46
2019-02-19T15:41:58.978Z,1.01
2019-02-19T15:47:10.311Z,1.65
2019-02-19T15:51:57.617Z,2.02
2019-02-19T15:57:05.810Z,2.33
2019-02-19T16:02:26.179Z,1.37
2019-02-19T16:07:14.589Z,1.11
2019-02-19T16:12:20.713Z,1.64
2019-02-19T16:17:41.792Z,1.64
2019-02-19T16:22:42.134Z,1.41
2019-02-19T16:27:42.237Z,1.64
2019-02-19T16:32:30.491Z,1.02
2019-02-19T16:37:38.759Z,1.57
2019-02-19T16:42:45.962Z,1.35
2019-02-19T16:47:54.134Z,1.15
2019-02-19T16:53:02.324Z,1.50
2019-02-19T16:58:23.289Z,1.42
2019-02-19T17:03:24.437Z,1.64
2019-02-19T17:08:12.706Z,1.52
2019-02-19T17:13:33.487Z,2.49
2019-02-19T17:18:33.526Z,1.69
2019-02-19T17:23:20.902Z,1.81
2019-02-19T17:28:40.984Z,1.45
2019-02-19T17:33:29.422Z,1.29
2019-02-19T17:43:53.578Z,1.30
2019-02-19T17:53:57.675Z,1.75
2019-02-19T17:58:44.905Z,1.60
2019-02-19T18:03:53.299Z,1.74
2019-02-19T18:09:03.229Z,1.29
2019-02-19T18:19:15.261Z,1.31
2019-02-19T18:24:16.681Z,1.38
2019-02-19T18:29:16.659Z,1.28
2019-02-19T18:39:12.133Z,0.93
2019-02-19T18:49:11.235Z,1.49
2019-02-19T18:54:19.684Z,1.73
2019-02-19T18:59:26.833Z,1.04
2019-02-19T19:04:35.295Z,1.18
2019-02-19T19:09:42.433Z,1.56
2019-02-19T19:15:04.571Z,1.73
2019-02-19T19:19:51.274Z,1.54
2019-02-19T19:24:58.634Z,2.20
2019-02-19T19:30:05.847Z,1.49
2019-02-19T19:35:13.294Z,1.91
2019-02-19T19:40:20.401Z,1.69
2019-02-19T19:45:28.933Z,2.24
2019-02-19T19:50:36.097Z,2.03
2019-02-19T19:55:44.368Z,2.65
2019-02-19T20:00:51.462Z,2.40
2019-02-19T20:06:00.101Z,2.17
2019-02-19T20:11:20.214Z,2.56
2019-02-19T20:16:07.653Z,2.43
2019-02-19T20:21:26.219Z,2.45
2019-02-19T20:26:24.436Z,1.90
2019-02-19T20:31:31.640Z,1.93
2019-02-19T20:36:51.871Z,2.29
2019-02-19T20:41:39.979Z,1.85
2019-02-19T20:46:48.577Z,1.71
2019-02-19T20:56:56.720Z,1.95
2019-02-19T21:02:03.851Z,1.84
2019-02-19T21:07:25.006Z,1.59
2019-02-19T21:12:13.062Z,1.53
2019-02-19T21:17:21.306Z,1.94
2019-02-19T21:22:29.366Z,2.03
2019-02-19T21:27:37.754Z,1.90
2019-02-19T21:32:44.883Z,1.93
2019-02-19T21:37:53.281Z,2.04
2019-02-19T21:43:00.415Z,1.84
2019-02-19T21:48:08.620Z,1.58
2019-02-19T21:58:30.500Z,1.94
2019-02-19T22:03:18.706Z,1.60
2019-02-19T22:13:26.620Z,1.88
2019-02-19T22:23:38.727Z,1.86
2019-02-19T22:28:46.054Z,2.04
2019-02-19T22:33:53.212Z,2.50
2019-02-19T22:39:01.606Z,1.99
2019-02-19T22:44:08.745Z,1.96
2019-02-19T22:49:16.866Z,2.50
2019-02-19T22:54:25.104Z,2.32
2019-02-19T22:59:45.275Z,2.41
2019-02-19T23:09:34.169Z,2.47
2019-02-19T23:14:41.441Z,2.34
2019-02-19T23:19:49.650Z,2.92
2019-02-19T23:24:58.382Z,2.77
2019-02-19T23:30:05.779Z,2.83
2019-02-19T23:35:13.052Z,3.19
2019-02-19T23:40:20.664Z,2.99
2019-02-19T23:50:28.649Z,3.32
2019-02-19T23:55:35.887Z,3.77
